Time;durP1;ratioP1;P1;durP2;ratioP2;P2;SDS_P1;SDS_P2;PMS_P1;PMS_P2;Temp;Humidity;BMP_temperature;BMP_pressure;BME280_temperature;BME280_humidity;BME280_pressure;Samples;Min_cycle;Max_cycle;Signal;HPM_P1;HPM_P2
2022/01/19 00:00:49;;;;;;;3.60;1.63;;;5.50;93.70;;;;;;4848730;29;20048;-77
2022/01/19 00:03:16;;;;;;;2.97;1.40;;;5.40;93.70;;;;;;4845231;29;20143;-77
2022/01/19 00:05:44;;;;;;;3.47;1.52;;;5.40;93.70;;;;;;4849485;29;20147;-78
2022/01/19 00:08:16;;;;;;;2.65;1.20;;;5.40;93.70;;;;;;4850101;29;20040;-77
2022/01/19 00:10:44;;;;;;;3.13;1.67;;;5.40;93.70;;;;;;4850748;29;20065;-77
2022/01/19 00:13:10;;;;;;;3.95;1.60;;;5.40;93.80;;;;;;4849270;29;20045;-78
2022/01/19 00:15:36;;;;;;;6.72;2.05;;;5.30;93.70;;;;;;4849229;29;20094;-77
2022/01/19 00:18:02;;;;;;;3.30;1.40;;;5.40;93.80;;;;;;4848868;29;20094;-78
2022/01/19 00:20:30;;;;;;;3.60;1.70;;;5.40;93.80;;;;;;4849343;29;20053;-78
2022/01/19 00:22:57;;;;;;;4.07;1.70;;;5.40;93.80;;;;;;4848885;29;20535;-77
2022/01/19 00:25:24;;;;;;;2.25;1.27;;;5.30;93.70;;;;;;4849056;29;20081;-77
2022/01/19 00:27:50;;;;;;;3.30;1.35;;;5.40;93.80;;;;;;4848718;29;20049;-77
2022/01/19 00:30:17;;;;;;;4.05;1.88;;;5.30;93.80;;;;;;4848699;29;20196;-77
2022/01/19 00:32:43;;;;;;;5.22;2.38;;;5.40;93.80;;;;;;4848500;29;20052;-77
2022/01/19 00:35:11;;;;;;;4.32;1.70;;;5.30;93.70;;;;;;4849294;29;20048;-77
2022/01/19 00:37:39;;;;;;;4.70;2.10;;;5.40;93.80;;;;;;4849039;29;20099;-78
2022/01/19 00:40:07;;;;;;;2.85;1.50;;;5.40;93.80;;;;;;4848463;29;20052;-77
2022/01/19 00:42:33;;;;;;;4.28;1.98;;;5.40;93.80;;;;;;4848492;29;20099;-77
2022/01/19 00:44:59;;;;;;;2.53;1.38;;;5.40;93.80;;;;;;4848472;29;20064;-77
2022/01/19 00:47:25;;;;;;;2.20;1.20;;;5.40;93.70;;;;;;4848426;29;20040;-78
2022/01/19 00:49:51;;;;;;;2.42;1.30;;;5.50;93.80;;;;;;4848941;29;20049;-77
2022/01/19 00:52:17;;;;;;;2.55;1.40;;;5.30;93.70;;;;;;4848278;29;20040;-78
2022/01/19 00:54:43;;;;;;;2.70;1.10;;;5.40;93.80;;;;;;4849105;29;20052;-77
2022/01/19 00:57:10;;;;;;;2.58;1.15;;;5.30;93.80;;;;;;4848387;29;20055;-77
2022/01/19 00:59:36;;;;;;;2.75;1.20;;;5.20;93.70;;;;;;4850938;29;20056;-76
2022/01/19 01:02:03;;;;;;;2.83;1.35;;;5.30;93.80;;;;;;4851360;29;20132;-77
2022/01/19 01:04:32;;;;;;;2.20;1.10;;;5.10;93.80;;;;;;4851648;29;20036;-76
2022/01/19 01:06:59;;;;;;;2.17;1.05;;;5.20;93.80;;;;;;4852140;29;20045;-79
2022/01/19 01:09:25;;;;;;;2.22;1.20;;;5.10;93.80;;;;;;4851540;29;20060;-78
2022/01/19 01:12:02;;;;;;;1.90;1.17;;;4.90;93.80;;;;;;4851378;29;20187;-77
2022/01/19 01:19:56;;;;;;;2.33;0.98;;;4.80;94.00;;;;;;4870421;29;20052;-77
2022/01/19 01:22:22;;;;;;;3.08;1.35;;;4.70;94.00;;;;;;4851614;29;20056;-76
2022/01/19 01:24:48;;;;;;;2.25;0.93;;;4.60;94.00;;;;;;4851683;29;20131;-79
2022/01/19 01:27:14;;;;;;;0.77;0.63;;;4.60;94.10;;;;;;4851801;29;20127;-78
2022/01/19 01:29:41;;;;;;;1.77;1.00;;;4.50;94.10;;;;;;4851074;29;20040;-79
2022/01/19 01:32:08;;;;;;;2.40;1.10;;;4.40;94.10;;;;;;4851626;29;20135;-78
2022/01/19 01:34:34;;;;;;;2.60;1.27;;;4.40;94.20;;;;;;4850966;29;20135;-77
2022/01/19 01:37:00;;;;;;;2.63;1.10;;;4.40;94.20;;;;;;4851266;29;20052;-77
2022/01/19 01:39:26;;;;;;;2.45;1.25;;;4.40;94.20;;;;;;4850946;29;20151;-79
2022/01/19 01:41:52;;;;;;;2.85;1.42;;;4.20;94.20;;;;;;4850752;29;20051;-77
2022/01/19 01:44:18;;;;;;;2.35;1.27;;;4.20;94.20;;;;;;4851720;29;20040;-76
2022/01/19 01:46:49;;;;;;;5.07;1.83;;;4.20;94.20;;;;;;4851055;29;20084;-79
2022/01/19 01:49:24;;;;;;;3.35;1.40;;;4.20;94.30;;;;;;4852718;29;20044;-79
2022/01/19 01:54:28;;;;;;;3.13;1.60;;;4.10;94.20;;;;;;4869710;29;20045;-78
2022/01/19 01:56:54;;;;;;;2.25;1.10;;;4.20;94.20;;;;;;4850729;29;20041;-79
2022/01/19 01:59:21;;;;;;;4.75;1.65;;;4.20;94.20;;;;;;4851110;29;20044;-78
2022/01/19 02:01:47;;;;;;;2.88;1.23;;;4.20;94.20;;;;;;4850740;29;20041;-78
2022/01/19 02:04:40;;;;;;;2.42;1.10;;;4.20;94.10;;;;;;4850859;29;20051;-79
2022/01/19 02:07:30;;;;;;;1.90;1.00;;;4.10;94.40;;;;;;4854725;29;20055;-77
2022/01/19 02:09:57;;;;;;;2.72;1.35;;;4.20;94.20;;;;;;4871078;29;20044;-76
2022/01/19 02:23:20;;;;;;;1.60;0.65;;;4.10;94.20;;;;;;4871149;29;20409;-79
2022/01/19 02:25:51;;;;;;;2.03;1.30;;;4.00;94.10;;;;;;4852293;29;20100;-78
2022/01/19 02:31:33;;;;;;;1.63;1.02;;;3.90;94.10;;;;;;4870630;29;20498;-79
2022/01/19 02:36:38;;;;;;;2.85;1.30;;;3.80;94.10;;;;;;4871298;29;20060;-79
2022/01/19 02:41:52;;;;;;;1.55;0.77;;;3.80;94.10;;;;;;4870662;29;20080;-79
2022/01/19 02:46:34;;;;;;;2.35;1.05;;;3.70;94.10;;;;;;4850348;29;20374;-78
2022/01/19 02:49:41;;;;;;;4.70;1.45;;;3.70;94.10;;;;;;4867228;29;20052;-79
2022/01/19 02:52:08;;;;;;;3.05;1.40;;;3.70;94.10;;;;;;4850276;29;20056;-79
2022/01/19 02:54:35;;;;;;;2.55;1.27;;;3.70;94.10;;;;;;4845854;29;20095;-79
2022/01/19 02:57:02;;;;;;;4.05;1.20;;;3.70;94.10;;;;;;4830628;29;20060;-78
2022/01/19 02:59:45;;;;;;;1.25;0.80;;;3.60;94.10;;;;;;4830937;29;20230;-78
2022/01/19 03:06:33;;;;;;;2.30;0.93;;;3.60;94.10;;;;;;4850692;29;20052;-78
2022/01/19 03:10:23;;;;;;;2.45;0.95;;;3.50;94.20;;;;;;4850403;29;20052;-78
2022/01/19 03:12:49;;;;;;;2.83;1.30;;;3.50;94.20;;;;;;4830156;29;20215;-78
2022/01/19 03:15:15;;;;;;;1.55;0.90;;;3.40;94.20;;;;;;4830385;29;20045;-78
2022/01/19 03:17:42;;;;;;;2.97;1.45;;;3.40;94.20;;;;;;4831142;29;20041;-78
2022/01/19 03:20:10;;;;;;;1.60;0.80;;;3.30;94.20;;;;;;4830550;29;20132;-79
2022/01/19 03:22:43;;;;;;;2.38;0.95;;;3.40;94.20;;;;;;4830134;29;20681;-79
2022/01/19 03:25:12;;;;;;;1.90;0.80;;;3.30;94.20;;;;;;4839184;29;20044;-78
2022/01/19 03:27:40;;;;;;;3.03;1.00;;;3.20;94.20;;;;;;4850769;29;20504;-78
2022/01/19 03:30:08;;;;;;;2.70;1.10;;;3.30;94.30;;;;;;4849530;29;20040;-78
2022/01/19 03:32:34;;;;;;;1.88;0.90;;;3.10;94.30;;;;;;4849617;29;20948;-78
2022/01/19 03:35:01;;;;;;;2.60;1.25;;;3.10;94.30;;;;;;4849428;29;20043;-79
2022/01/19 03:37:28;;;;;;;2.72;1.00;;;3.10;94.30;;;;;;4849635;29;20044;-78
2022/01/19 03:39:54;;;;;;;3.53;1.10;;;3.10;94.30;;;;;;4849547;29;20037;-78
2022/01/19 03:42:20;;;;;;;1.10;0.63;;;3.10;94.30;;;;;;4849242;29;20884;-78
2022/01/19 03:44:47;;;;;;;2.05;0.93;;;3.10;94.30;;;;;;4849476;29;20048;-78
2022/01/19 03:47:14;;;;;;;1.40;0.90;;;3.00;94.30;;;;;;4849611;29;20088;-77
2022/01/19 03:49:40;;;;;;;2.30;0.85;;;2.90;94.30;;;;;;4849411;29;20408;-78
2022/01/19 03:52:06;;;;;;;1.40;0.90;;;2.90;94.30;;;;;;4849228;29;20120;-78
2022/01/19 03:54:36;;;;;;;2.20;1.05;;;2.90;94.30;;;;;;4849685;29;20524;-78
2022/01/19 03:57:03;;;;;;;2.03;0.90;;;2.90;94.30;;;;;;4849956;29;20493;-77
2022/01/19 03:59:30;;;;;;;1.95;1.00;;;2.90;94.30;;;;;;4849922;29;20056;-77
2022/01/19 04:01:58;;;;;;;2.65;1.30;;;2.80;94.30;;;;;;4849123;29;20051;-77
2022/01/19 04:07:10;;;;;;;1.60;0.85;;;2.80;94.30;;;;;;4857174;29;20049;-78
2022/01/19 04:09:40;;;;;;;2.65;1.10;;;2.70;94.30;;;;;;4848941;29;20047;-78
2022/01/19 04:12:08;;;;;;;2.10;1.00;;;2.70;94.40;;;;;;4849308;29;20044;-77
2022/01/19 04:14:35;;;;;;;2.22;0.95;;;2.60;94.30;;;;;;4849022;29;20041;-78
2022/01/19 04:17:06;;;;;;;2.08;1.20;;;2.60;94.40;;;;;;4849094;29;20060;-78
2022/01/19 04:19:42;;;;;;;2.25;1.17;;;2.60;94.40;;;;;;4849268;29;20052;-77
2022/01/19 04:22:17;;;;;;;1.25;0.82;;;2.70;94.50;;;;;;4851688;29;20056;-77
2022/01/19 04:24:44;;;;;;;1.40;0.77;;;2.50;94.40;;;;;;4849126;29;20047;-77
2022/01/19 04:27:32;;;;;;;2.80;1.20;;;2.60;94.40;;;;;;4848858;29;21353;-78
2022/01/19 04:30:05;;;;;;;1.40;0.80;;;2.50;94.40;;;;;;4869460;29;20412;-78
2022/01/19 04:32:52;;;;;;;2.42;1.20;;;2.50;94.40;;;;;;4850365;29;20404;-77
2022/01/19 04:35:23;;;;;;;2.28;1.17;;;2.50;94.40;;;;;;4869490;29;20108;-78
2022/01/19 04:38:11;;;;;;;2.22;0.98;;;2.50;94.40;;;;;;4850169;29;20467;-78
2022/01/19 04:54:35;;;;;;;0.88;0.63;;;2.30;94.30;;;;;;4867826;29;20056;-79
2022/01/19 05:02:36;;;;;;;1.95;0.77;;;2.20;94.40;;;;;;4868295;29;20066;-79
2022/01/19 05:05:14;;;;;;;2.33;0.98;;;2.20;94.40;;;;;;4869143;29;20481;-79
2022/01/19 05:08:01;;;;;;;1.80;0.70;;;2.20;94.40;;;;;;4851997;29;20047;-79
2022/01/19 05:15:45;;;;;;;1.92;1.00;;;2.20;94.40;;;;;;4867516;29;20092;-79
2022/01/19 05:18:12;;;;;;;1.40;0.80;;;2.20;94.40;;;;;;4849036;29;20036;-79
2022/01/19 05:20:38;;;;;;;0.98;0.70;;;2.30;94.40;;;;;;4848852;29;20048;-78
2022/01/19 05:23:04;;;;;;;1.48;0.98;;;2.30;94.40;;;;;;4848505;29;20119;-78
2022/01/19 05:25:30;;;;;;;1.63;0.80;;;2.40;94.40;;;;;;4848887;29;20047;-78
2022/01/19 05:27:56;;;;;;;1.02;0.75;;;2.40;94.40;;;;;;4848737;29;20139;-79
2022/01/19 05:30:22;;;;;;;2.50;1.10;;;2.40;94.30;;;;;;4848374;29;20136;-78
2022/01/19 05:32:49;;;;;;;2.15;1.05;;;2.40;94.30;;;;;;4848166;29;20444;-78
2022/01/19 05:35:15;;;;;;;2.30;1.40;;;2.50;94.30;;;;;;4848592;29;20075;-78
2022/01/19 05:37:42;;;;;;;2.65;1.30;;;2.50;94.30;;;;;;4848059;29;20170;-78
2022/01/19 05:40:10;;;;;;;2.47;1.35;;;2.60;94.30;;;;;;4848128;29;20044;-79
2022/01/19 05:42:37;;;;;;;3.05;1.33;;;2.60;94.20;;;;;;4846830;29;20041;-79
2022/01/19 05:45:04;;;;;;;2.40;1.48;;;2.60;94.10;;;;;;4849692;29;20452;-79
2022/01/19 05:47:30;;;;;;;3.53;1.70;;;2.50;94.00;;;;;;4851645;29;20132;-79
2022/01/19 05:49:56;;;;;;;3.65;2.00;;;2.60;94.00;;;;;;4851202;29;20049;-79
2022/01/19 05:52:23;;;;;;;3.90;1.75;;;2.60;94.10;;;;;;4851129;29;20116;-78
2022/01/19 05:54:51;;;;;;;3.95;1.80;;;2.60;94.00;;;;;;4851026;29;20063;-78
2022/01/19 05:57:18;;;;;;;3.55;1.70;;;2.60;94.00;;;;;;4851535;29;20567;-78
2022/01/19 05:59:44;;;;;;;4.03;1.90;;;2.60;94.00;;;;;;4851200;29;20504;-79
2022/01/19 06:02:13;;;;;;;5.28;2.60;;;2.60;94.00;;;;;;4850809;29;20051;-79
2022/01/19 06:04:39;;;;;;;4.68;2.35;;;2.60;94.00;;;;;;4850859;29;20033;-78
2022/01/19 06:07:05;;;;;;;5.93;2.78;;;2.60;94.00;;;;;;4866316;29;20123;-76
2022/01/19 06:09:35;;;;;;;5.07;2.50;;;2.70;94.00;;;;;;4850815;29;20037;-78
2022/01/19 06:12:05;;;;;;;5.22;2.78;;;2.60;93.90;;;;;;4852095;29;20048;-77
2022/01/19 06:14:32;;;;;;;5.32;2.65;;;2.60;93.90;;;;;;4851136;29;20470;-77
2022/01/19 06:17:02;;;;;;;5.40;2.67;;;2.70;94.00;;;;;;4850704;29;20052;-77
2022/01/19 06:19:28;;;;;;;6.93;3.08;;;2.70;93.90;;;;;;4850631;29;20052;-77
2022/01/19 06:21:54;;;;;;;8.73;3.53;;;2.70;93.90;;;;;;4850637;29;20048;-77
2022/01/19 06:24:21;;;;;;;7.75;3.33;;;2.70;93.90;;;;;;4850873;29;20048;-77
2022/01/19 06:26:48;;;;;;;7.85;3.72;;;2.80;93.90;;;;;;4850552;29;20040;-78
2022/01/19 06:29:14;;;;;;;8.40;4.28;;;2.70;93.80;;;;;;4850357;29;20056;-78
2022/01/19 06:31:40;;;;;;;7.78;4.35;;;2.70;93.80;;;;;;4850172;29;20045;-78
2022/01/19 06:34:07;;;;;;;9.90;4.75;;;2.80;93.80;;;;;;4850478;29;20053;-78
2022/01/19 06:36:33;;;;;;;11.40;5.05;;;2.70;93.80;;;;;;4850757;29;20048;-76
2022/01/19 06:39:00;;;;;;;11.00;4.40;;;2.70;93.80;;;;;;4851006;29;20501;-77
2022/01/19 06:41:26;;;;;;;8.82;4.20;;;2.80;93.80;;;;;;4850193;29;20059;-77
2022/01/19 06:43:52;;;;;;;7.85;4.03;;;2.70;93.80;;;;;;4850176;29;20041;-77
2022/01/19 06:46:18;;;;;;;9.43;4.40;;;2.80;93.80;;;;;;4850253;29;20044;-76
2022/01/19 06:48:44;;;;;;;9.25;4.13;;;2.80;93.80;;;;;;4850695;29;20045;-77
2022/01/19 06:51:10;;;;;;;9.23;4.03;;;2.70;93.80;;;;;;4850129;29;20056;-77
2022/01/19 06:53:36;;;;;;;9.75;4.00;;;2.70;93.80;;;;;;4850650;29;20171;-76
2022/01/19 06:56:02;;;;;;;7.18;3.22;;;2.80;93.90;;;;;;4850352;29;20059;-79
2022/01/19 06:58:29;;;;;;;10.63;4.07;;;2.80;93.80;;;;;;4850511;29;20041;-76
2022/01/19 07:00:56;;;;;;;10.02;4.70;;;2.80;93.80;;;;;;4850648;29;20072;-79
2022/01/19 07:03:22;;;;;;;10.05;4.95;;;2.70;93.80;;;;;;4880760;29;20039;-77
2022/01/19 07:05:48;;;;;;;10.75;5.03;;;2.80;93.80;;;;;;4850877;29;20060;-77
2022/01/19 07:08:14;;;;;;;10.45;4.57;;;2.70;93.80;;;;;;4850136;29;20076;-78
2022/01/19 07:10:40;;;;;;;10.25;4.28;;;2.80;93.80;;;;;;4850268;29;20137;-76
2022/01/19 07:13:07;;;;;;;11.05;4.65;;;2.80;93.80;;;;;;4849805;29;20135;-78
2022/01/19 07:15:36;;;;;;;10.60;5.10;;;2.80;93.80;;;;;;4850574;29;20183;-78
2022/01/19 07:18:03;;;;;;;11.40;5.60;;;2.80;93.80;;;;;;4850436;29;20053;-78
2022/01/19 07:20:30;;;;;;;11.32;5.72;;;2.70;93.80;;;;;;4845856;29;20053;-78
2022/01/19 07:22:57;;;;;;;12.13;5.88;;;2.80;93.80;;;;;;4845467;29;20052;-78
2022/01/19 07:25:23;;;;;;;14.25;6.00;;;2.80;93.80;;;;;;4831263;29;20037;-76
2022/01/19 07:27:49;;;;;;;15.02;7.25;;;2.80;93.80;;;;;;4830683;29;20056;-76
2022/01/19 07:30:15;;;;;;;12.50;5.78;;;2.70;93.80;;;;;;4830367;29;20076;-76
2022/01/19 07:32:42;;;;;;;14.80;6.68;;;2.70;93.80;;;;;;4830511;29;20047;-77
2022/01/19 07:35:09;;;;;;;13.50;5.93;;;2.80;93.80;;;;;;4830667;29;20041;-78
2022/01/19 07:37:35;;;;;;;12.70;5.78;;;2.80;93.80;;;;;;4830528;29;20055;-77
2022/01/19 07:40:03;;;;;;;13.18;5.85;;;2.80;93.80;;;;;;4845454;29;20044;-78
2022/01/19 07:42:31;;;;;;;13.88;5.82;;;2.70;93.70;;;;;;4845736;29;20076;-78
2022/01/19 07:49:32;;;;;;;9.75;4.72;;;2.80;93.80;;;;;;4874586;29;20449;-79
2022/01/19 07:55:45;;;;;;;7.90;3.65;;;2.80;93.70;;;;;;4765221;30;20048;-79
2022/01/19 07:58:11;;;;;;;9.00;3.90;;;2.80;93.70;;;;;;4765735;30;20055;-80
2022/01/19 08:00:38;;;;;;;7.90;3.45;;;2.90;93.70;;;;;;4767918;30;20385;-79
2022/01/19 08:03:06;;;;;;;9.00;3.88;;;2.90;93.80;;;;;;4771605;30;20039;-80
2022/01/19 08:05:35;;;;;;;8.02;4.28;;;2.90;93.80;;;;;;4768117;30;20051;-80
2022/01/19 08:08:06;;;;;;;9.07;4.00;;;2.80;93.70;;;;;;4768771;30;20143;-78
2022/01/19 08:11:16;;;;;;;8.98;4.30;;;3.00;93.80;;;;;;4768335;30;20123;-81
2022/01/19 08:13:51;;;;;;;7.82;3.70;;;2.90;93.80;;;;;;4778610;29;20056;-82
2022/01/19 08:16:53;;;;;;;7.18;3.30;;;3.10;93.80;;;;;;4776401;30;20044;-81
2022/01/19 08:20:12;;;;;;;7.78;3.88;;;3.00;93.80;;;;;;4783664;29;20123;-83
2022/01/19 08:22:41;;;;;;;8.07;3.67;;;3.00;93.80;;;;;;4747474;30;20079;-83
2022/01/19 08:25:12;;;;;;;7.75;3.50;;;3.00;93.80;;;;;;4736066;30;20087;-80
2022/01/19 08:31:01;;;;;;;9.48;3.65;;;3.10;93.90;;;;;;4745866;30;20051;-79
2022/01/19 08:33:39;;;;;;;7.88;3.60;;;3.00;93.70;;;;;;4731198;30;20044;-80
2022/01/19 08:36:05;;;;;;;8.73;4.20;;;3.00;93.70;;;;;;4730908;30;20033;-77
2022/01/19 08:38:33;;;;;;;7.70;3.78;;;3.00;93.70;;;;;;4731484;30;20071;-77
2022/01/19 08:41:00;;;;;;;7.60;4.13;;;3.10;93.70;;;;;;4731226;30;20126;-79
2022/01/19 08:43:32;;;;;;;10.90;4.90;;;3.10;93.70;;;;;;4745697;29;20862;-79
2022/01/19 08:46:01;;;;;;;10.90;5.20;;;3.10;93.70;;;;;;4801849;29;20039;-79
2022/01/19 08:48:30;;;;;;;11.82;5.25;;;3.10;93.70;;;;;;4772746;29;20042;-79
2022/01/19 08:54:38;;;;;;;8.50;4.13;;;3.10;93.70;;;;;;4714060;30;20064;-79
2022/01/19 09:01:13;;;;;;;9.55;4.68;;;3.20;93.70;;;;;;4673324;30;20545;-78
2022/01/19 09:08:06;;;;;;;7.47;4.07;;;3.20;93.70;;;;;;4667919;30;20050;-78
2022/01/19 09:10:32;;;;;;;9.48;4.68;;;3.20;93.60;;;;;;4665233;30;20075;-77
2022/01/19 09:12:58;;;;;;;9.52;4.45;;;3.20;93.60;;;;;;4645110;30;20051;-77
2022/01/19 09:15:27;;;;;;;9.57;4.47;;;3.30;93.70;;;;;;4630586;30;20066;-78
2022/01/19 09:17:53;;;;;;;8.82;4.60;;;3.30;93.60;;;;;;4616829;30;20046;-77
2022/01/19 09:20:19;;;;;;;9.55;4.90;;;3.30;93.60;;;;;;4632637;30;20083;-78
2022/01/19 09:22:48;;;;;;;9.27;4.80;;;3.40;93.70;;;;;;4619511;30;20074;-77
2022/01/19 09:26:14;;;;;;;12.43;5.78;;;3.20;93.60;;;;;;4675290;30;20055;-78
2022/01/19 09:29:23;;;;;;;11.50;5.63;;;3.30;93.60;;;;;;4735278;30;20048;-77
2022/01/19 09:32:01;;;;;;;10.60;5.18;;;3.30;93.60;;;;;;4730921;30;20053;-78
2022/01/19 09:34:27;;;;;;;10.15;5.35;;;3.40;93.60;;;;;;4732770;30;20053;-77
2022/01/19 09:36:53;;;;;;;10.25;5.22;;;3.40;93.60;;;;;;4735729;30;20045;-79
2022/01/19 09:39:34;;;;;;;11.05;6.22;;;3.40;93.60;;;;;;4733657;30;20114;-80
2022/01/19 09:42:00;;;;;;;10.40;5.75;;;3.40;93.60;;;;;;4716684;30;20057;-77
2022/01/19 09:44:28;;;;;;;9.18;4.97;;;3.40;93.60;;;;;;4730393;30;20128;-78
2022/01/19 09:46:54;;;;;;;10.52;5.07;;;3.40;93.60;;;;;;4730325;30;20075;-77
2022/01/19 09:49:20;;;;;;;10.80;4.85;;;3.40;93.60;;;;;;4715848;30;20529;-77
2022/01/19 09:51:49;;;;;;;9.07;4.80;;;3.40;93.60;;;;;;4716501;30;20064;-77
2022/01/19 09:54:18;;;;;;;10.98;5.22;;;3.50;93.60;;;;;;4750645;30;20044;-79
2022/01/19 09:56:45;;;;;;;9.57;5.25;;;3.50;93.60;;;;;;4722152;30;20060;-77
2022/01/19 09:59:13;;;;;;;8.38;4.60;;;3.60;93.70;;;;;;4752694;30;20568;-77
2022/01/19 10:02:04;;;;;;;10.68;4.88;;;3.40;93.60;;;;;;4751852;30;20094;-80
2022/01/19 10:08:37;;;;;;;;;;;3.60;93.60;;;;;;4783871;29;20532;-78
2022/01/19 10:22:38;;;;;;;6.82;4.10;;;3.60;93.50;;;;;;4765624;30;20058;-81
2022/01/19 10:25:30;;;;;;;8.00;4.03;;;3.60;93.50;;;;;;4740074;30;20052;-82
2022/01/19 10:27:57;;;;;;;8.07;4.38;;;3.70;93.50;;;;;;4703676;30;20037;-81
2022/01/19 10:30:29;;;;;;;7.72;4.05;;;3.70;93.40;;;;;;4712621;30;20041;-81
2022/01/19 10:33:35;;;;;;;10.60;5.43;;;3.60;93.40;;;;;;4730738;30;20048;-80
2022/01/19 10:50:43;;;;;;;8.73;4.50;;;3.90;93.40;;;;;;5008049;23;20091;-80
2022/01/19 10:53:12;;;;;;;7.90;3.95;;;3.90;93.40;;;;;;4858086;29;20061;-81
2022/01/19 10:55:45;;;;;;;8.70;4.35;;;3.90;93.40;;;;;;4862500;29;20052;-78
2022/01/19 11:05:00;;;;;;;7.35;3.90;;;4.00;93.40;;;;;;4845115;29;20456;-80
2022/01/19 11:07:28;;;;;;;7.65;3.83;;;4.00;93.30;;;;;;4841150;29;20042;-78
2022/01/19 11:09:58;;;;;;;7.82;3.95;;;4.00;93.30;;;;;;4840071;29;20038;-79
2022/01/19 11:12:29;;;;;;;7.55;3.97;;;4.00;93.40;;;;;;4820266;29;20081;-79
2022/01/19 11:25:31;;;;;;;9.15;5.47;;;4.10;93.30;;;;;;4731636;30;20061;-77
2022/01/19 11:27:58;;;;;;;9.27;5.10;;;4.10;93.30;;;;;;4698245;30;20041;-77
2022/01/19 11:30:27;;;;;;;10.35;5.65;;;4.10;93.40;;;;;;4714342;30;20041;-76
2022/01/19 11:33:25;;;;;;;12.13;6.50;;;4.10;93.40;;;;;;4714092;30;20097;-75
2022/01/19 11:35:54;;;;;;;11.93;6.38;;;4.10;93.40;;;;;;4697158;30;20045;-76
2022/01/19 11:38:34;;;;;;;10.95;5.88;;;4.20;93.40;;;;;;4691355;30;20042;-77
2022/01/19 11:41:03;;;;;;;10.88;5.85;;;4.20;93.40;;;;;;4679993;30;20403;-77
2022/01/19 11:43:30;;;;;;;12.32;6.10;;;4.20;93.40;;;;;;4679083;30;20096;-77
2022/01/19 11:45:58;;;;;;;9.50;5.20;;;4.20;93.40;;;;;;4679969;30;20042;-77
2022/01/19 11:48:28;;;;;;;10.93;5.15;;;4.20;93.30;;;;;;4692056;30;20442;-77
2022/01/19 11:51:15;;;;;;;8.50;4.65;;;4.20;93.30;;;;;;4714491;30;20128;-77
2022/01/19 11:54:13;;;;;;;9.02;4.97;;;4.30;93.40;;;;;;4749532;29;20130;-77
2022/01/19 11:57:05;;;;;;;9.77;5.25;;;4.40;93.30;;;;;;4829990;29;20045;-77
2022/01/19 12:00:06;;;;;;;9.55;5.80;;;4.40;93.30;;;;;;4884236;29;20444;-77
2022/01/19 12:02:37;;;;;;;13.27;6.22;;;4.40;93.30;;;;;;4880149;29;20052;-78
2022/01/19 12:05:16;;;;;;;12.38;6.28;;;4.40;93.30;;;;;;4849678;29;20048;-78
2022/01/19 12:07:48;;;;;;;12.30;7.13;;;4.40;93.30;;;;;;4880337;29;20123;-77
2022/01/19 12:10:42;;;;;;;13.60;6.90;;;4.40;93.60;;;;;;4880533;29;20477;-78
2022/01/19 12:13:34;;;;;;;12.25;7.30;;;4.40;93.30;;;;;;4880115;29;20072;-77
2022/01/19 12:20:25;;;;;;;12.07;6.15;;;4.40;93.30;;;;;;4856316;29;20123;-78
2022/01/19 12:23:25;;;;;;;9.77;5.60;;;4.50;93.30;;;;;;4798277;29;20073;-78
2022/01/19 12:25:54;;;;;;;11.18;5.75;;;4.60;93.30;;;;;;4809540;29;20043;-76
2022/01/19 12:28:45;;;;;;;10.88;6.68;;;4.50;93.30;;;;;;4815109;29;20065;-76
2022/01/19 12:35:57;;;;;;;9.13;5.20;;;4.60;93.30;;;;;;4799812;29;20111;-80
2022/01/19 12:39:17;;;;;;;9.70;5.18;;;4.70;93.20;;;;;;4784120;29;20134;-82
2022/01/19 12:42:24;;;;;;;11.93;5.78;;;4.80;93.20;;;;;;4783197;29;20059;-80
2022/01/19 13:09:06;;;;;;;10.85;6.35;;;5.00;93.00;;;;;;4822632;29;20053;-82
2022/01/19 13:14:38;;;;;;;11.60;6.90;;;5.00;93.00;;;;;;4772234;30;20047;-81
2022/01/19 13:17:06;;;;;;;;;;;5.00;93.00;;;;;;4771349;30;20089;-82
2022/01/19 13:19:34;;;;;;;11.88;6.88;;;4.90;93.00;;;;;;4773944;30;19918;-79
2022/01/19 13:22:05;;;;;;;11.35;6.47;;;4.80;93.00;;;;;;4759587;30;20209;-75
2022/01/19 13:24:34;;;;;;;12.50;6.97;;;4.90;93.00;;;;;;4774020;30;20122;-77
2022/01/19 13:27:04;;;;;;;14.63;7.55;;;5.00;93.10;;;;;;4786929;30;20066;-78
2022/01/19 13:29:39;;;;;;;13.68;7.85;;;4.90;93.10;;;;;;4774894;30;20604;-79
2022/01/19 13:32:40;;;;;;;14.20;7.30;;;4.90;93.10;;;;;;4793967;29;20039;-82
2022/01/19 13:35:11;;;;;;;13.43;7.20;;;5.00;93.10;;;;;;4789424;29;20059;-78
2022/01/19 13:37:42;;;;;;;13.67;6.80;;;5.00;93.10;;;;;;4753890;29;20505;-78
2022/01/19 13:40:31;;;;;;;13.60;7.13;;;5.00;93.10;;;;;;4793668;29;20051;-79
2022/01/19 13:43:04;;;;;;;11.35;6.70;;;5.00;93.10;;;;;;4782705;29;20065;-79
2022/01/19 13:45:47;;;;;;;12.52;7.05;;;5.00;93.10;;;;;;4776646;29;20496;-78
2022/01/19 13:48:31;;;;;;;11.68;6.53;;;5.00;93.10;;;;;;4777077;29;20429;-79
2022/01/19 13:51:15;;;;;;;10.27;5.93;;;5.00;93.10;;;;;;4834988;29;20052;-80
2022/01/19 13:53:49;;;;;;;11.98;6.50;;;5.10;93.10;;;;;;4867597;29;20040;-81
2022/01/19 13:56:27;;;;;;;12.65;7.20;;;5.10;93.10;;;;;;4884527;29;20436;-80
2022/01/19 13:58:58;;;;;;;15.57;7.90;;;5.00;93.10;;;;;;4884291;29;20488;-77
2022/01/19 14:01:59;;;;;;;13.25;7.28;;;5.10;93.10;;;;;;4884314;29;20052;-78
2022/01/19 14:04:30;;;;;;;11.75;6.63;;;5.10;93.10;;;;;;4856894;29;20048;-78
2022/01/19 14:07:06;;;;;;;11.13;6.30;;;5.10;93.10;;;;;;4881754;29;20057;-77
2022/01/19 14:09:34;;;;;;;10.90;6.32;;;5.20;93.20;;;;;;4881889;29;20037;-77
2022/01/19 14:12:12;;;;;;;13.38;7.65;;;5.00;93.10;;;;;;4881751;29;20045;-78
2022/01/19 14:14:51;;;;;;;14.68;7.40;;;5.00;93.10;;;;;;4881371;29;20037;-80
2022/01/19 14:17:31;;;;;;;12.90;7.18;;;5.00;93.10;;;;;;4865190;29;20489;-78
2022/01/19 14:20:21;;;;;;;14.40;8.75;;;5.10;93.10;;;;;;4880511;29;20052;-78
2022/01/19 14:22:47;;;;;;;14.65;8.18;;;5.00;93.10;;;;;;4857381;29;20084;-78
2022/01/19 14:25:18;;;;;;;16.00;8.25;;;5.10;93.10;;;;;;4843799;29;20930;-78
2022/01/19 14:27:47;;;;;;;16.15;8.95;;;5.00;93.10;;;;;;4859044;29;20045;-78
2022/01/19 14:30:28;;;;;;;14.75;8.57;;;5.00;93.10;;;;;;4859007;29;20038;-78
2022/01/19 14:32:58;;;;;;;13.93;8.48;;;5.10;93.10;;;;;;4859432;29;20092;-78
2022/01/19 14:35:28;;;;;;;15.40;8.50;;;5.10;93.10;;;;;;4843662;29;20037;-77
2022/01/19 14:38:00;;;;;;;14.98;8.05;;;5.10;93.10;;;;;;4859033;29;20057;-77
2022/01/19 14:40:29;;;;;;;13.35;7.07;;;5.10;93.10;;;;;;4858836;29;20158;-78
2022/01/19 14:42:55;;;;;;;13.55;7.65;;;5.00;93.00;;;;;;4828391;29;20049;-78
2022/01/19 14:45:27;;;;;;;13.50;7.90;;;5.10;93.00;;;;;;4858999;29;20053;-77
2022/01/19 14:47:55;;;;;;;13.13;7.88;;;5.10;93.10;;;;;;4893788;29;20044;-77
2022/01/19 14:50:26;;;;;;;14.68;8.05;;;5.10;93.10;;;;;;4898342;29;20472;-78
2022/01/19 14:52:54;;;;;;;13.05;7.50;;;5.20;93.10;;;;;;4897951;29;20084;-77
2022/01/19 14:55:23;;;;;;;14.55;7.82;;;5.10;93.10;;;;;;4850369;29;20041;-78
2022/01/19 14:57:51;;;;;;;14.65;9.30;;;5.10;93.10;;;;;;4881392;29;20043;-77
2022/01/19 15:00:18;;;;;;;16.75;9.23;;;5.00;93.10;;;;;;4850324;29;20064;-78
2022/01/19 15:06:07;;;;;;;13.75;7.72;;;5.10;93.10;;;;;;4827466;29;20046;-80
2022/01/19 15:08:37;;;;;;;13.25;7.40;;;5.10;93.10;;;;;;4822200;29;20073;-77
2022/01/19 15:11:03;;;;;;;13.30;7.45;;;5.20;93.10;;;;;;4806326;29;20465;-78
2022/01/19 15:13:31;;;;;;;13.45;7.80;;;5.20;93.10;;;;;;4790491;29;20080;-78
2022/01/19 15:18:23;;;;;;;13.63;7.90;;;5.10;93.10;;;;;;4803626;29;20562;-79
2022/01/19 15:20:59;;;;;;;12.50;7.43;;;5.10;93.10;;;;;;4787664;29;20069;-79
2022/01/19 15:23:36;;;;;;;13.20;7.53;;;5.00;93.10;;;;;;4815494;29;20130;-79
2022/01/19 15:26:06;;;;;;;14.93;7.75;;;5.00;93.10;;;;;;4755981;29;20049;-79
2022/01/19 15:28:32;;;;;;;15.07;8.40;;;5.00;93.20;;;;;;4755676;29;20606;-79
2022/01/19 15:30:58;;;;;;;12.90;7.47;;;5.00;93.20;;;;;;4755266;29;20054;-79
2022/01/19 15:33:24;;;;;;;12.07;7.10;;;5.00;93.20;;;;;;4770392;29;20051;-79
2022/01/19 15:35:51;;;;;;;13.68;7.88;;;5.00;93.20;;;;;;4758225;29;20038;-79
2022/01/19 15:38:18;;;;;;;14.80;8.25;;;5.00;93.20;;;;;;4773365;29;20051;-78
2022/01/19 15:40:45;;;;;;;13.88;7.30;;;5.00;93.30;;;;;;4773090;29;20077;-79
2022/01/19 15:43:17;;;;;;;14.85;8.25;;;5.00;93.30;;;;;;4806390;29;20030;-79
2022/01/19 15:45:45;;;;;;;13.68;7.35;;;5.00;93.30;;;;;;4790833;29;20107;-78
2022/01/19 15:48:15;;;;;;;12.40;7.05;;;5.00;93.30;;;;;;4820663;29;20109;-80
2022/01/19 15:50:45;;;;;;;15.75;7.88;;;5.00;93.30;;;;;;4845337;29;20085;-80
2022/01/19 15:53:11;;;;;;;12.35;7.18;;;5.00;93.30;;;;;;4866330;29;20044;-80
2022/01/19 15:55:36;;;;;;;12.45;7.15;;;5.00;93.30;;;;;;4849500;29;20033;-80
2022/01/19 15:58:02;;;;;;;12.65;7.15;;;5.00;93.30;;;;;;4865590;29;20040;-80
2022/01/19 16:00:28;;;;;;;11.80;7.03;;;5.10;93.30;;;;;;4880476;29;20077;-80
2022/01/19 16:02:54;;;;;;;12.32;7.28;;;5.00;93.30;;;;;;4849492;29;20117;-80
2022/01/19 16:05:20;;;;;;;15.27;8.90;;;5.10;93.30;;;;;;4849460;29;20072;-80
2022/01/19 16:07:46;;;;;;;13.57;7.25;;;5.00;93.30;;;;;;4880728;29;20039;-80
2022/01/19 16:10:11;;;;;;;15.75;8.38;;;5.00;93.30;;;;;;4849249;29;20103;-81